Terminal Aerodrome Forecast
Issued by NWS

Home | Current Version | Previous Version | Graphics & Text | Print | Product List | Glossary On
Versions: 1 2 3 4 5 6 7 8 9 10 11 12 13 14 15 16 17
000
FTUS43 KTOP 191100
TAFFOE
TAF
KFOE 191124Z 1912/2012 29010KT P6SM FEW035
     FM191500 33015G22KT P6SM SCT035
     FM192300 31011KT P6SM FEW035
     FM200100 27004KT P6SM FEW035=

USA.gov is the U.S. government's official web portal to all federal, state and local government web resources and services.